createdAt,value
2018-12-19T00:01:12.743Z,20.00
2018-12-19T00:03:47.564Z,18.03
2018-12-19T00:06:22.297Z,17.20
2018-12-19T00:09:03.012Z,18.37
2018-12-19T00:11:33.683Z,17.53
2018-12-19T00:14:08.474Z,17.67
2018-12-19T00:16:43.291Z,16.90
2018-12-19T00:19:17.941Z,19.13
2018-12-19T00:21:52.754Z,18.07
2018-12-19T00:24:27.369Z,17.50
2018-12-19T00:27:02.182Z,16.30
2018-12-19T00:29:36.984Z,18.10
2018-12-19T00:32:11.890Z,18.00
2018-12-19T00:34:47.135Z,17.30
2018-12-19T00:37:21.950Z,17.37
2018-12-19T00:39:57.090Z,16.87
2018-12-19T00:42:31.811Z,17.87
2018-12-19T00:45:06.951Z,17.17
2018-12-19T00:47:41.613Z,17.57
2018-12-19T00:50:16.490Z,16.83
2018-12-19T00:52:51.339Z,16.23
2018-12-19T00:55:26.290Z,17.10
2018-12-19T00:58:01.018Z,16.77
2018-12-19T01:00:36.003Z,16.73
2018-12-19T01:03:10.687Z,18.23
2018-12-19T01:05:45.538Z,16.37
2018-12-19T01:08:20.369Z,16.17
2018-12-19T01:10:55.280Z,17.87
2018-12-19T01:13:30.808Z,17.87
2018-12-19T01:16:05.672Z,17.67
2018-12-19T01:18:40.438Z,17.57
2018-12-19T01:21:15.229Z,16.30
2018-12-19T01:23:50.091Z,16.70
2018-12-19T01:26:25.107Z,17.37
2018-12-19T01:28:59.726Z,17.87
2018-12-19T01:31:34.584Z,16.97
2018-12-19T01:34:09.445Z,17.73
2018-12-19T01:36:44.417Z,16.70
2018-12-19T01:39:22.463Z,17.77
2018-12-19T01:41:56.045Z,18.13
2018-12-19T01:44:30.783Z,17.27
2018-12-19T01:47:05.778Z,16.77
2018-12-19T01:49:40.642Z,18.73
2018-12-19T01:52:15.584Z,18.23
2018-12-19T01:54:50.418Z,18.30
2018-12-19T01:57:25.046Z,18.23
2018-12-19T01:59:59.846Z,18.53
2018-12-19T02:02:34.580Z,17.83
2018-12-19T02:05:09.331Z,18.13
2018-12-19T02:07:44.204Z,17.40
2018-12-19T02:10:19.079Z,17.30
2018-12-19T02:12:54.116Z,17.47
2018-12-19T02:15:28.849Z,16.83
2018-12-19T02:18:03.675Z,17.37
2018-12-19T02:20:38.505Z,18.50
2018-12-19T02:23:13.156Z,16.40
2018-12-19T02:25:48.022Z,17.47
2018-12-19T02:28:22.896Z,16.67
2018-12-19T02:30:57.587Z,17.63
2018-12-19T02:33:32.371Z,16.90
2018-12-19T02:36:07.212Z,17.13
2018-12-19T02:38:42.026Z,18.70
2018-12-19T02:41:16.702Z,18.10
2018-12-19T02:43:51.448Z,17.90
2018-12-19T02:46:26.324Z,17.00
2018-12-19T02:49:01.145Z,18.03
2018-12-19T02:51:35.845Z,19.03
2018-12-19T02:54:10.628Z,19.67
2018-12-19T02:56:45.449Z,18.73
2018-12-19T02:59:20.283Z,18.17
2018-12-19T03:01:55.334Z,19.70
2018-12-19T03:04:30.004Z,19.93
2018-12-19T03:07:04.880Z,18.63
2018-12-19T03:09:42.999Z,19.43
2018-12-19T03:12:16.499Z,19.87
2018-12-19T03:14:51.399Z,18.73
2018-12-19T03:17:26.151Z,19.03
2018-12-19T03:20:00.999Z,19.77
2018-12-19T03:22:35.913Z,18.57
2018-12-19T03:25:10.716Z,19.07
2018-12-19T03:27:45.572Z,20.03
2018-12-19T03:30:20.304Z,18.97
2018-12-19T03:32:55.088Z,19.17
2018-12-19T03:35:29.915Z,18.53
2018-12-19T03:38:04.619Z,18.13
2018-12-19T03:40:39.288Z,18.57
2018-12-19T03:43:14.087Z,18.43
2018-12-19T03:45:48.940Z,18.87
2018-12-19T03:48:28.956Z,18.37
2018-12-19T03:51:03.865Z,18.10
2018-12-19T03:53:38.594Z,17.97
2018-12-19T03:56:13.337Z,15.87
2018-12-19T03:58:48.211Z,16.90
2018-12-19T04:01:22.793Z,17.23
2018-12-19T04:03:57.733Z,16.87
2018-12-19T04:06:32.442Z,17.37
2018-12-19T04:09:07.788Z,16.70
2018-12-19T04:11:42.508Z,18.30
2018-12-19T04:14:17.305Z,16.97
2018-12-19T04:16:52.093Z,18.00
2018-12-19T04:19:26.745Z,17.20
2018-12-19T04:22:01.363Z,16.33
2018-12-19T04:24:35.919Z,17.63
2018-12-19T04:27:10.693Z,17.67
2018-12-19T04:29:45.733Z,18.23
2018-12-19T04:32:20.691Z,17.73
2018-12-19T04:34:55.360Z,18.50
2018-12-19T04:37:29.973Z,17.67
2018-12-19T04:40:06.066Z,17.43
2018-12-19T04:42:41.163Z,17.83
2018-12-19T04:45:15.962Z,17.70
2018-12-19T04:47:50.808Z,17.27
2018-12-19T04:50:25.570Z,17.77
2018-12-19T04:53:00.308Z,17.47
2018-12-19T04:55:35.094Z,17.37
2018-12-19T04:58:09.896Z,17.10
2018-12-19T05:00:44.658Z,17.03
2018-12-19T05:03:19.545Z,17.37
2018-12-19T05:05:54.761Z,17.13
2018-12-19T05:08:29.611Z,18.53
2018-12-19T05:11:04.475Z,16.87
2018-12-19T05:13:39.307Z,17.67
2018-12-19T05:16:14.149Z,15.67
2018-12-19T05:18:49.083Z,16.57
2018-12-19T05:21:23.978Z,18.93
2018-12-19T05:23:58.866Z,17.87
2018-12-19T05:26:33.611Z,18.07
2018-12-19T05:29:08.405Z,18.83
2018-12-19T05:31:43.238Z,19.33
2018-12-19T05:34:18.086Z,20.03
2018-12-19T05:36:52.849Z,17.57
2018-12-19T05:39:27.539Z,18.27
2018-12-19T05:42:02.313Z,17.90
2018-12-19T05:44:37.229Z,17.17
2018-12-19T05:47:12.442Z,17.00
2018-12-19T05:49:47.716Z,17.70
2018-12-19T05:52:25.069Z,17.30
2018-12-19T05:55:00.163Z,16.13
2018-12-19T05:57:35.117Z,16.33
2018-12-19T06:00:09.989Z,16.67
2018-12-19T06:02:44.809Z,15.50
2018-12-19T06:05:19.640Z,16.30
2018-12-19T06:07:54.292Z,16.20
2018-12-19T06:10:29.128Z,16.00
2018-12-19T06:13:03.938Z,15.17
2018-12-19T06:15:38.663Z,15.40
2018-12-19T06:18:13.389Z,16.30
2018-12-19T06:20:48.251Z,16.23
2018-12-19T06:23:22.843Z,15.30
2018-12-19T06:25:57.804Z,15.50
2018-12-19T06:28:32.758Z,14.53
2018-12-19T06:31:07.494Z,15.17
2018-12-19T06:33:42.704Z,14.00
2018-12-19T06:36:17.905Z,14.97
2018-12-19T06:38:52.668Z,14.90
2018-12-19T06:41:27.343Z,15.60
2018-12-19T06:44:02.337Z,16.17
2018-12-19T06:46:36.960Z,15.93
2018-12-19T06:49:11.729Z,15.30
2018-12-19T06:51:46.373Z,15.50
2018-12-19T06:54:27.679Z,15.67
2018-12-19T06:57:02.541Z,15.33
2018-12-19T06:59:37.314Z,15.43
2018-12-19T07:02:12.114Z,15.53
2018-12-19T07:04:46.900Z,15.47
2018-12-19T07:07:21.802Z,16.50
2018-12-19T07:09:56.528Z,15.47
2018-12-19T07:12:31.193Z,14.53
2018-12-19T07:15:06.553Z,13.83
2018-12-19T07:17:41.549Z,15.73
2018-12-19T07:20:16.330Z,14.10
2018-12-19T07:22:51.312Z,15.13
2018-12-19T07:25:26.139Z,16.20
2018-12-19T07:28:00.980Z,13.77
2018-12-19T07:30:35.849Z,14.17
2018-12-19T07:33:10.716Z,15.23
2018-12-19T07:35:45.625Z,15.67
2018-12-19T07:38:20.497Z,15.27
2018-12-19T07:40:55.146Z,14.20
2018-12-19T07:43:30.094Z,13.50
2018-12-19T07:46:05.422Z,15.83
2018-12-19T07:48:40.559Z,15.90
2018-12-19T07:51:15.384Z,14.90
2018-12-19T07:53:50.295Z,13.90
2018-12-19T07:56:25.267Z,14.50
2018-12-19T07:59:00.095Z,14.77
2018-12-19T08:01:34.798Z,13.97
2018-12-19T08:04:09.567Z,14.83
2018-12-19T08:06:44.290Z,14.77
2018-12-19T08:09:19.254Z,14.70
2018-12-19T08:11:53.996Z,14.80
2018-12-19T08:14:28.826Z,14.33
2018-12-19T08:17:03.552Z,15.50
2018-12-19T08:19:38.343Z,14.13
2018-12-19T08:22:13.112Z,14.47
2018-12-19T08:24:47.872Z,14.90
2018-12-19T08:27:22.697Z,13.77
2018-12-19T08:29:57.690Z,14.53
2018-12-19T08:32:32.478Z,14.03
2018-12-19T08:35:07.559Z,12.93
2018-12-19T08:37:42.140Z,14.43
2018-12-19T08:40:17.234Z,14.33
2018-12-19T08:42:52.267Z,14.27
2018-12-19T08:45:27.372Z,14.07
2018-12-19T08:48:02.042Z,15.30
2018-12-19T08:50:36.691Z,14.80
2018-12-19T08:53:11.527Z,13.43
2018-12-19T08:55:46.354Z,13.47
2018-12-19T08:58:21.187Z,13.97
2018-12-19T09:00:56.013Z,14.27
2018-12-19T09:03:30.805Z,13.97
2018-12-19T09:06:05.711Z,16.07
2018-12-19T09:08:40.526Z,15.43
2018-12-19T09:11:15.426Z,16.30
2018-12-19T09:13:50.195Z,17.13
2018-12-19T09:16:24.946Z,16.53
2018-12-19T09:18:59.792Z,16.27
2018-12-19T09:21:34.728Z,15.60
2018-12-19T09:24:10.038Z,16.07
2018-12-19T09:26:44.785Z,15.70
2018-12-19T09:29:19.557Z,16.07
2018-12-19T09:31:54.401Z,16.70
2018-12-19T09:34:29.293Z,16.53
2018-12-19T09:37:04.328Z,15.80
2018-12-19T09:39:39.171Z,17.43
2018-12-19T09:42:13.964Z,16.57
2018-12-19T09:44:48.664Z,16.17
2018-12-19T09:47:23.400Z,16.33
2018-12-19T09:49:58.143Z,15.20
2018-12-19T09:52:32.940Z,16.37
2018-12-19T09:55:07.736Z,15.27
2018-12-19T09:57:42.807Z,15.70
2018-12-19T10:00:23.023Z,15.00
2018-12-19T10:02:57.831Z,17.33
2018-12-19T10:05:32.716Z,16.73
2018-12-19T10:08:07.428Z,15.50
2018-12-19T10:10:42.376Z,16.37
2018-12-19T10:13:17.243Z,15.40
2018-12-19T10:15:51.928Z,15.87
2018-12-19T10:18:26.592Z,18.27
2018-12-19T10:21:01.429Z,18.43
2018-12-19T10:23:36.261Z,19.13
2018-12-19T10:26:13.892Z,18.83
2018-12-19T10:28:48.589Z,17.57
2018-12-19T10:31:23.429Z,17.70
2018-12-19T10:33:58.277Z,20.23
2018-12-19T10:36:37.795Z,21.67
2018-12-19T10:39:17.409Z,21.50
2018-12-19T10:41:52.357Z,20.53
2018-12-19T10:44:27.038Z,19.87
2018-12-19T10:47:01.932Z,22.30
2018-12-19T10:49:36.824Z,21.30
2018-12-19T10:52:12.836Z,20.67
2018-12-19T10:54:47.602Z,19.33
2018-12-19T10:57:22.578Z,18.37
2018-12-19T10:59:58.273Z,20.90
2018-12-19T11:02:32.944Z,19.30
2018-12-19T11:05:07.667Z,22.50
2018-12-19T11:07:42.531Z,22.03
2018-12-19T11:10:17.636Z,21.73
2018-12-19T11:12:52.399Z,20.80
2018-12-19T11:15:27.233Z,20.67
2018-12-19T11:18:01.906Z,20.30
2018-12-19T11:20:36.824Z,20.20
2018-12-19T11:23:11.649Z,19.50
2018-12-19T11:25:46.474Z,20.30
2018-12-19T11:28:21.372Z,20.93
2018-12-19T11:30:56.272Z,18.47
2018-12-19T11:33:31.132Z,18.70
2018-12-19T11:36:05.986Z,16.90
2018-12-19T11:38:40.882Z,17.47
2018-12-19T11:41:16.195Z,18.33
2018-12-19T11:43:50.791Z,17.67
2018-12-19T11:46:25.573Z,15.20
2018-12-19T11:49:00.337Z,11.40
2018-12-19T11:51:35.142Z,13.43
2018-12-19T11:54:10.002Z,14.70
2018-12-19T11:56:44.898Z,11.20
2018-12-19T11:59:19.704Z,11.57
2018-12-19T12:01:54.335Z,13.90
2018-12-19T12:04:29.148Z,17.63
2018-12-19T12:07:04.396Z,18.77
2018-12-19T12:09:39.340Z,20.10
2018-12-19T12:12:14.060Z,19.53
2018-12-19T12:14:48.828Z,21.00
2018-12-19T12:17:23.672Z,20.77
2018-12-19T12:19:58.470Z,20.27
2018-12-19T12:22:33.087Z,21.37
2018-12-19T12:25:08.265Z,22.00
2018-12-19T12:27:42.911Z,20.67
2018-12-19T12:30:18.633Z,20.20
2018-12-19T12:32:53.562Z,18.50
2018-12-19T12:35:28.291Z,19.60
2018-12-19T12:38:03.151Z,21.00
2018-12-19T12:40:38.050Z,20.90
2018-12-19T12:43:13.000Z,20.73
2018-12-19T12:45:47.756Z,22.00
2018-12-19T12:48:22.682Z,21.63
2018-12-19T12:50:57.483Z,20.23
2018-12-19T12:53:32.408Z,20.30
2018-12-19T12:56:07.194Z,19.90
2018-12-19T12:58:42.144Z,19.07
2018-12-19T13:01:16.804Z,19.30
2018-12-19T13:03:51.672Z,18.67
2018-12-19T13:06:26.315Z,18.97
2018-12-19T13:09:01.031Z,20.17
2018-12-19T13:11:35.832Z,19.03
2018-12-19T13:14:10.507Z,18.53
2018-12-19T13:16:45.367Z,20.17
2018-12-19T13:19:20.229Z,19.10
2018-12-19T13:21:55.232Z,19.20
2018-12-19T13:24:30.008Z,20.47
2018-12-19T13:27:04.924Z,19.73
2018-12-19T13:29:39.892Z,21.13
2018-12-19T13:32:14.905Z,19.57
2018-12-19T13:34:49.687Z,19.37
2018-12-19T13:37:24.879Z,18.97
2018-12-19T13:39:59.729Z,19.30
2018-12-19T13:42:34.622Z,20.77
2018-12-19T13:45:09.394Z,19.67
2018-12-19T13:47:44.066Z,21.23
2018-12-19T13:50:18.999Z,20.43
2018-12-19T13:52:53.710Z,22.00
2018-12-19T13:55:30.496Z,21.43
2018-12-19T13:58:07.103Z,21.70
2018-12-19T14:00:42.226Z,20.67
2018-12-19T14:03:16.987Z,20.90
2018-12-19T14:05:51.597Z,22.53
2018-12-19T14:08:26.912Z,22.13
2018-12-19T14:11:01.778Z,20.37
2018-12-19T14:13:36.501Z,20.23
2018-12-19T14:16:11.337Z,20.47
2018-12-19T14:18:46.160Z,20.17
2018-12-19T14:21:20.776Z,19.90
2018-12-19T14:23:55.428Z,19.03
2018-12-19T14:26:30.128Z,19.37
2018-12-19T14:29:04.984Z,17.50
2018-12-19T14:31:39.808Z,18.00
2018-12-19T14:34:14.641Z,17.43
2018-12-19T14:36:49.386Z,17.83
2018-12-19T14:39:24.344Z,17.50
2018-12-19T14:41:59.075Z,18.97
2018-12-19T14:44:33.703Z,20.40
2018-12-19T14:47:08.535Z,19.50
2018-12-19T14:49:43.417Z,18.77
2018-12-19T14:52:18.387Z,21.50
2018-12-19T14:54:53.321Z,20.97
2018-12-19T14:57:28.803Z,19.53
2018-12-19T15:00:04.051Z,19.27
2018-12-19T15:02:38.910Z,18.83
2018-12-19T15:05:13.867Z,18.27
2018-12-19T15:07:48.662Z,18.77
2018-12-19T15:10:27.295Z,18.50
2018-12-19T15:13:01.929Z,19.53
2018-12-19T15:15:36.749Z,18.67
2018-12-19T15:18:11.495Z,19.90
2018-12-19T15:20:46.321Z,21.47
2018-12-19T15:23:21.069Z,21.60
2018-12-19T15:25:56.022Z,21.20
2018-12-19T15:28:31.321Z,22.63
2018-12-19T15:31:05.982Z,21.00
2018-12-19T15:33:41.044Z,20.27
2018-12-19T15:36:16.160Z,20.87
2018-12-19T15:38:51.014Z,20.60
2018-12-19T15:41:25.874Z,21.07
2018-12-19T15:44:00.810Z,20.63
2018-12-19T15:46:35.549Z,21.27
2018-12-19T15:49:10.357Z,20.77
2018-12-19T15:51:52.642Z,20.43
2018-12-19T15:54:27.474Z,20.33
2018-12-19T15:57:02.191Z,20.80
2018-12-19T15:59:36.962Z,20.80
2018-12-19T16:02:11.855Z,21.33
2018-12-19T16:04:46.716Z,21.27
2018-12-19T16:07:21.475Z,21.00
2018-12-19T16:09:56.361Z,21.80
2018-12-19T16:12:31.690Z,20.40
2018-12-19T16:15:06.692Z,20.83
2018-12-19T16:17:41.397Z,21.57
2018-12-19T16:20:16.393Z,20.80
2018-12-19T16:22:51.349Z,20.23
2018-12-19T16:25:26.156Z,19.37
2018-12-19T16:28:00.986Z,20.93
2018-12-19T16:30:35.922Z,21.60
2018-12-19T16:33:10.646Z,18.93
2018-12-19T16:35:45.294Z,20.33
2018-12-19T16:38:20.119Z,15.90
2018-12-19T16:40:54.909Z,16.47
2018-12-19T16:43:29.591Z,16.67
2018-12-19T16:46:04.335Z,16.17
2018-12-19T16:48:39.286Z,17.33
2018-12-19T16:51:13.929Z,17.77
2018-12-19T16:53:48.630Z,15.77
2018-12-19T16:56:23.312Z,16.00
2018-12-19T16:58:58.199Z,14.40
2018-12-19T17:01:33.766Z,12.67
2018-12-19T17:04:08.615Z,14.00
2018-12-19T17:06:43.529Z,13.10
2018-12-19T17:09:18.260Z,12.60
2018-12-19T17:11:53.065Z,12.00
2018-12-19T17:14:27.987Z,13.00
2018-12-19T17:17:02.704Z,9.93
2018-12-19T17:19:37.702Z,9.23
2018-12-19T17:22:15.686Z,10.23
2018-12-19T17:24:50.423Z,8.90
2018-12-19T17:27:25.242Z,8.47
2018-12-19T17:29:59.867Z,8.73
2018-12-19T17:32:35.291Z,9.07
2018-12-19T17:35:09.883Z,9.33
2018-12-19T17:37:44.586Z,6.10
2018-12-19T17:40:19.207Z,5.47
2018-12-19T17:42:59.428Z,6.57
2018-12-19T17:45:30.557Z,5.20
2018-12-19T17:48:05.343Z,5.80
2018-12-19T17:50:39.943Z,6.07
2018-12-19T17:53:14.670Z,5.60
2018-12-19T17:55:49.416Z,5.50
2018-12-19T17:58:24.096Z,5.63
2018-12-19T18:00:58.739Z,5.80
2018-12-19T18:03:33.360Z,5.60
2018-12-19T18:06:07.995Z,5.87
2018-12-19T18:08:42.643Z,6.93
2018-12-19T18:11:17.179Z,5.97
2018-12-19T18:13:52.069Z,6.53
2018-12-19T18:16:26.805Z,6.43
2018-12-19T18:19:01.529Z,6.93
2018-12-19T18:21:36.203Z,6.83
2018-12-19T18:24:11.040Z,7.23
2018-12-19T18:26:45.819Z,6.70
2018-12-19T18:29:20.455Z,7.03
2018-12-19T18:31:55.157Z,6.40
2018-12-19T18:34:29.896Z,6.33
2018-12-19T18:37:04.845Z,6.27
2018-12-19T18:39:39.772Z,7.13
2018-12-19T18:42:14.443Z,7.07
2018-12-19T18:44:49.150Z,7.43
2018-12-19T18:47:30.534Z,6.67
2018-12-19T18:50:05.661Z,7.20
2018-12-19T18:52:40.833Z,7.90
2018-12-19T18:55:15.430Z,7.57
2018-12-19T18:57:51.287Z,7.43
2018-12-19T19:00:31.396Z,8.03
2018-12-19T19:03:06.194Z,7.63
2018-12-19T19:05:41.455Z,7.67
2018-12-19T19:08:16.208Z,7.17
2018-12-19T19:10:50.891Z,8.40
2018-12-19T19:13:25.518Z,7.47
2018-12-19T19:16:00.212Z,8.10
2018-12-19T19:18:35.363Z,8.23
2018-12-19T19:21:10.131Z,8.87
2018-12-19T19:23:44.983Z,8.23
2018-12-19T19:26:19.769Z,7.90
2018-12-19T19:28:54.585Z,7.03
2018-12-19T19:31:29.391Z,7.73
2018-12-19T19:34:04.343Z,9.33
2018-12-19T19:36:39.383Z,9.87
2018-12-19T19:39:13.984Z,13.23
2018-12-19T19:41:48.625Z,8.23
2018-12-19T19:44:23.432Z,7.37
2018-12-19T19:46:58.053Z,9.93
2018-12-19T19:49:32.849Z,7.30
2018-12-19T19:52:07.797Z,6.33
2018-12-19T19:54:42.737Z,6.40
2018-12-19T19:57:17.563Z,6.97
2018-12-19T19:59:52.285Z,7.60
2018-12-19T20:02:27.015Z,7.10
2018-12-19T20:05:01.606Z,7.47
2018-12-19T20:07:36.516Z,6.83
2018-12-19T20:10:11.306Z,7.60
2018-12-19T20:12:46.074Z,7.20
2018-12-19T20:15:20.691Z,7.03
2018-12-19T20:17:55.616Z,7.20
2018-12-19T20:20:30.485Z,7.67
2018-12-19T20:23:05.253Z,8.23
2018-12-19T20:25:39.986Z,8.37
2018-12-19T20:28:14.806Z,8.03
2018-12-19T20:30:49.485Z,8.30
2018-12-19T20:33:24.152Z,8.70
2018-12-19T20:35:58.889Z,11.47
2018-12-19T20:38:34.297Z,12.33
2018-12-19T20:41:09.059Z,9.33
2018-12-19T20:43:43.617Z,8.50
2018-12-19T20:46:18.135Z,11.30
2018-12-19T20:48:52.803Z,9.33
2018-12-19T20:51:27.509Z,10.33
2018-12-19T20:54:02.314Z,9.53
2018-12-19T20:56:37.545Z,10.00
2018-12-19T20:59:12.466Z,10.50
2018-12-19T21:01:47.333Z,11.10
2018-12-19T21:04:22.016Z,12.33
2018-12-19T21:06:56.838Z,11.93
2018-12-19T21:09:31.621Z,12.97
2018-12-19T21:12:06.360Z,13.07
2018-12-19T21:14:40.933Z,12.10
2018-12-19T21:17:21.087Z,13.57
2018-12-19T21:19:55.910Z,13.53
2018-12-19T21:22:30.626Z,13.57
2018-12-19T21:25:05.586Z,12.10
2018-12-19T21:27:40.259Z,13.63
2018-12-19T21:30:15.238Z,13.27
2018-12-19T21:32:49.932Z,14.60
2018-12-19T21:35:24.901Z,15.10
2018-12-19T21:38:00.463Z,14.07
2018-12-19T21:40:35.239Z,20.10
2018-12-19T21:43:09.811Z,17.83
2018-12-19T21:45:51.614Z,20.23
2018-12-19T21:48:21.456Z,17.80
2018-12-19T21:50:56.371Z,16.77
2018-12-19T21:53:31.238Z,17.33
2018-12-19T21:56:06.226Z,17.10
2018-12-19T21:58:41.042Z,15.87
2018-12-19T22:01:16.169Z,16.30
2018-12-19T22:03:50.888Z,17.10
2018-12-19T22:06:25.787Z,16.93
2018-12-19T22:09:00.694Z,11.03
2018-12-19T22:11:35.621Z,7.80
2018-12-19T22:14:10.521Z,11.40
2018-12-19T22:16:50.806Z,10.27
2018-12-19T22:19:25.495Z,9.40
2018-12-19T22:22:00.413Z,9.37
2018-12-19T22:24:35.336Z,8.70
2018-12-19T22:27:10.124Z,7.10
2018-12-19T22:29:44.898Z,6.77
2018-12-19T22:32:19.640Z,6.23
2018-12-19T22:34:54.688Z,5.80
2018-12-19T22:37:29.624Z,6.40
2018-12-19T22:40:04.696Z,6.63
2018-12-19T22:42:39.685Z,8.03
2018-12-19T22:45:14.571Z,8.43
2018-12-19T22:47:49.573Z,9.17
2018-12-19T22:50:24.221Z,9.90
2018-12-19T22:53:05.486Z,9.47
2018-12-19T22:55:40.670Z,9.27
2018-12-19T22:58:15.457Z,10.27
2018-12-19T23:00:56.474Z,11.27
2018-12-19T23:03:38.166Z,12.37
2018-12-19T23:06:13.009Z,11.50
2018-12-19T23:08:47.866Z,11.77
2018-12-19T23:11:22.793Z,12.90
2018-12-19T23:13:57.565Z,13.40
2018-12-19T23:16:32.724Z,13.27
2018-12-19T23:19:07.982Z,14.40
2018-12-19T23:21:42.805Z,12.53
2018-12-19T23:24:17.644Z,11.63
2018-12-19T23:26:52.608Z,13.00
2018-12-19T23:29:27.382Z,14.13
2018-12-19T23:32:02.320Z,14.60
2018-12-19T23:34:36.995Z,14.13
2018-12-19T23:37:11.840Z,14.20
2018-12-19T23:39:46.686Z,15.57
2018-12-19T23:42:21.591Z,14.80
2018-12-19T23:44:56.758Z,15.20
2018-12-19T23:47:31.662Z,14.80
2018-12-19T23:50:06.523Z,14.17
2018-12-19T23:52:41.306Z,16.07
2018-12-19T23:55:16.068Z,15.63
2018-12-19T23:57:50.907Z,16.73
